sensor_id;sensor_type;location;lat;lon;timestamp;P1;durP1;ratioP1;P2;durP2;ratioP2
76380;SDS011;65202;52.520;10.528;2023-11-21T00:02:26;36.63;;;12.40;;
76380;SDS011;65202;52.520;10.528;2023-11-21T00:04:54;40.40;;;12.70;;
76380;SDS011;65202;52.520;10.528;2023-11-21T00:07:22;33.50;;;12.35;;
76380;SDS011;65202;52.520;10.528;2023-11-21T00:09:49;40.40;;;13.00;;
76380;SDS011;65202;52.520;10.528;2023-11-21T00:12:16;36.00;;;12.45;;
76380;SDS011;65202;52.520;10.528;2023-11-21T00:14:44;43.42;;;12.80;;
76380;SDS011;65202;52.520;10.528;2023-11-21T00:17:11;46.00;;;12.38;;
76380;SDS011;65202;52.520;10.528;2023-11-21T00:19:39;38.60;;;12.85;;
76380;SDS011;65202;52.520;10.528;2023-11-21T00:22:06;41.47;;;12.93;;
76380;SDS011;65202;52.520;10.528;2023-11-21T00:24:34;40.10;;;12.68;;
76380;SDS011;65202;52.520;10.528;2023-11-21T00:27:02;43.17;;;12.25;;
76380;SDS011;65202;52.520;10.528;2023-11-21T00:29:29;30.85;;;12.18;;
76380;SDS011;65202;52.520;10.528;2023-11-21T00:31:56;52.90;;;13.95;;
76380;SDS011;65202;52.520;10.528;2023-11-21T00:34:23;38.40;;;12.38;;
76380;SDS011;65202;52.520;10.528;2023-11-21T00:36:51;33.17;;;12.68;;
76380;SDS011;65202;52.520;10.528;2023-11-21T00:39:18;42.85;;;13.00;;
76380;SDS011;65202;52.520;10.528;2023-11-21T00:41:45;41.30;;;13.07;;
76380;SDS011;65202;52.520;10.528;2023-11-21T00:44:12;40.05;;;12.80;;
76380;SDS011;65202;52.520;10.528;2023-11-21T00:46:39;41.78;;;13.65;;
76380;SDS011;65202;52.520;10.528;2023-11-21T00:49:07;39.67;;;13.57;;
76380;SDS011;65202;52.520;10.528;2023-11-21T00:51:34;40.92;;;12.85;;
76380;SDS011;65202;52.520;10.528;2023-11-21T00:54:02;44.45;;;13.23;;
76380;SDS011;65202;52.520;10.528;2023-11-21T00:56:30;46.33;;;13.52;;
76380;SDS011;65202;52.520;10.528;2023-11-21T00:58:57;42.95;;;13.70;;
76380;SDS011;65202;52.520;10.528;2023-11-21T01:01:24;39.80;;;13.38;;
76380;SDS011;65202;52.520;10.528;2023-11-21T01:03:51;37.95;;;13.05;;
76380;SDS011;65202;52.520;10.528;2023-11-21T01:06:19;41.53;;;13.45;;
76380;SDS011;65202;52.520;10.528;2023-11-21T01:08:46;37.38;;;14.15;;
76380;SDS011;65202;52.520;10.528;2023-11-21T01:11:13;39.88;;;13.70;;
76380;SDS011;65202;52.520;10.528;2023-11-21T01:13:41;43.25;;;13.93;;
76380;SDS011;65202;52.520;10.528;2023-11-21T01:16:09;34.15;;;12.90;;
76380;SDS011;65202;52.520;10.528;2023-11-21T01:18:36;43.85;;;14.05;;
76380;SDS011;65202;52.520;10.528;2023-11-21T01:21:04;42.28;;;13.85;;
76380;SDS011;65202;52.520;10.528;2023-11-21T01:23:32;49.90;;;14.20;;
76380;SDS011;65202;52.520;10.528;2023-11-21T01:25:59;43.67;;;14.70;;
76380;SDS011;65202;52.520;10.528;2023-11-21T01:28:26;40.08;;;13.68;;
76380;SDS011;65202;52.520;10.528;2023-11-21T01:30:53;40.88;;;13.50;;
76380;SDS011;65202;52.520;10.528;2023-11-21T01:33:23;40.15;;;13.85;;
76380;SDS011;65202;52.520;10.528;2023-11-21T01:35:52;42.42;;;14.85;;
76380;SDS011;65202;52.520;10.528;2023-11-21T01:38:21;36.25;;;13.80;;
76380;SDS011;65202;52.520;10.528;2023-11-21T01:40:49;40.95;;;14.57;;
76380;SDS011;65202;52.520;10.528;2023-11-21T01:43:16;44.78;;;13.55;;
76380;SDS011;65202;52.520;10.528;2023-11-21T01:45:43;42.50;;;13.95;;
76380;SDS011;65202;52.520;10.528;2023-11-21T01:48:12;37.63;;;13.38;;
76380;SDS011;65202;52.520;10.528;2023-11-21T01:50:40;38.20;;;13.70;;
76380;SDS011;65202;52.520;10.528;2023-11-21T01:53:08;38.53;;;14.07;;
76380;SDS011;65202;52.520;10.528;2023-11-21T01:55:38;36.63;;;13.40;;
76380;SDS011;65202;52.520;10.528;2023-11-21T01:58:07;43.35;;;14.75;;
76380;SDS011;65202;52.520;10.528;2023-11-21T02:00:35;43.25;;;14.75;;
76380;SDS011;65202;52.520;10.528;2023-11-21T02:03:05;42.53;;;14.00;;
76380;SDS011;65202;52.520;10.528;2023-11-21T02:05:34;37.83;;;14.63;;
76380;SDS011;65202;52.520;10.528;2023-11-21T02:08:01;45.17;;;15.15;;
76380;SDS011;65202;52.520;10.528;2023-11-21T02:10:30;38.97;;;13.98;;
76380;SDS011;65202;52.520;10.528;2023-11-21T02:12:58;40.30;;;13.80;;
76380;SDS011;65202;52.520;10.528;2023-11-21T02:15:27;41.35;;;13.82;;
76380;SDS011;65202;52.520;10.528;2023-11-21T02:17:55;46.72;;;14.93;;
76380;SDS011;65202;52.520;10.528;2023-11-21T02:20:25;43.35;;;14.60;;
76380;SDS011;65202;52.520;10.528;2023-11-21T02:22:53;42.03;;;16.17;;
76380;SDS011;65202;52.520;10.528;2023-11-21T02:25:27;41.58;;;14.98;;
76380;SDS011;65202;52.520;10.528;2023-11-21T02:27:58;40.72;;;14.23;;
76380;SDS011;65202;52.520;10.528;2023-11-21T02:30:28;39.85;;;14.25;;
76380;SDS011;65202;52.520;10.528;2023-11-21T02:32:55;41.85;;;14.88;;
76380;SDS011;65202;52.520;10.528;2023-11-21T02:35:25;39.17;;;14.02;;
76380;SDS011;65202;52.520;10.528;2023-11-21T02:37:53;43.38;;;15.98;;
76380;SDS011;65202;52.520;10.528;2023-11-21T02:40:21;38.65;;;14.05;;
76380;SDS011;65202;52.520;10.528;2023-11-21T02:42:51;43.47;;;13.85;;
76380;SDS011;65202;52.520;10.528;2023-11-21T02:45:19;43.28;;;14.73;;
76380;SDS011;65202;52.520;10.528;2023-11-21T02:47:51;38.28;;;14.65;;
76380;SDS011;65202;52.520;10.528;2023-11-21T02:50:24;37.92;;;14.52;;
76380;SDS011;65202;52.520;10.528;2023-11-21T02:52:51;43.33;;;15.15;;
76380;SDS011;65202;52.520;10.528;2023-11-21T02:55:18;43.38;;;15.18;;
76380;SDS011;65202;52.520;10.528;2023-11-21T02:57:46;38.80;;;15.52;;
76380;SDS011;65202;52.520;10.528;2023-11-21T03:00:13;38.97;;;15.05;;
76380;SDS011;65202;52.520;10.528;2023-11-21T03:02:42;40.92;;;15.65;;
76380;SDS011;65202;52.520;10.528;2023-11-21T03:05:10;43.13;;;16.10;;
76380;SDS011;65202;52.520;10.528;2023-11-21T03:07:38;47.42;;;16.98;;
76380;SDS011;65202;52.520;10.528;2023-11-21T03:10:07;55.75;;;17.05;;
76380;SDS011;65202;52.520;10.528;2023-11-21T03:12:39;47.40;;;17.10;;
76380;SDS011;65202;52.520;10.528;2023-11-21T03:15:07;39.28;;;16.63;;
76380;SDS011;65202;52.520;10.528;2023-11-21T03:17:35;45.83;;;17.00;;
76380;SDS011;65202;52.520;10.528;2023-11-21T03:20:03;43.80;;;16.52;;
76380;SDS011;65202;52.520;10.528;2023-11-21T03:22:32;39.97;;;17.42;;
76380;SDS011;65202;52.520;10.528;2023-11-21T03:25:00;42.13;;;17.27;;
76380;SDS011;65202;52.520;10.528;2023-11-21T03:27:27;34.25;;;16.83;;
76380;SDS011;65202;52.520;10.528;2023-11-21T03:29:55;42.47;;;18.95;;
76380;SDS011;65202;52.520;10.528;2023-11-21T03:32:22;54.88;;;22.58;;
76380;SDS011;65202;52.520;10.528;2023-11-21T03:34:54;38.28;;;18.20;;
76380;SDS011;65202;52.520;10.528;2023-11-21T03:37:26;42.10;;;17.33;;
76380;SDS011;65202;52.520;10.528;2023-11-21T03:40:09;41.20;;;17.05;;
76380;SDS011;65202;52.520;10.528;2023-11-21T03:42:37;43.38;;;18.25;;
76380;SDS011;65202;52.520;10.528;2023-11-21T03:45:05;49.67;;;18.77;;
76380;SDS011;65202;52.520;10.528;2023-11-21T03:47:33;41.10;;;18.38;;
76380;SDS011;65202;52.520;10.528;2023-11-21T03:50:01;44.33;;;19.73;;
76380;SDS011;65202;52.520;10.528;2023-11-21T03:52:28;47.88;;;19.77;;
76380;SDS011;65202;52.520;10.528;2023-11-21T03:54:55;48.40;;;20.00;;
76380;SDS011;65202;52.520;10.528;2023-11-21T03:57:23;50.38;;;19.17;;
76380;SDS011;65202;52.520;10.528;2023-11-21T03:59:50;43.58;;;19.80;;
76380;SDS011;65202;52.520;10.528;2023-11-21T04:02:17;47.15;;;19.95;;
76380;SDS011;65202;52.520;10.528;2023-11-21T04:04:44;44.90;;;20.42;;
76380;SDS011;65202;52.520;10.528;2023-11-21T04:07:12;52.33;;;20.45;;
76380;SDS011;65202;52.520;10.528;2023-11-21T04:09:40;50.88;;;20.52;;
76380;SDS011;65202;52.520;10.528;2023-11-21T04:12:08;39.70;;;19.27;;
76380;SDS011;65202;52.520;10.528;2023-11-21T04:14:38;42.25;;;18.30;;
76380;SDS011;65202;52.520;10.528;2023-11-21T04:17:05;38.95;;;18.05;;
76380;SDS011;65202;52.520;10.528;2023-11-21T04:19:33;45.75;;;17.85;;
76380;SDS011;65202;52.520;10.528;2023-11-21T04:22:00;35.28;;;17.17;;
76380;SDS011;65202;52.520;10.528;2023-11-21T04:24:27;38.65;;;17.08;;
76380;SDS011;65202;52.520;10.528;2023-11-21T04:26:55;38.85;;;17.67;;
76380;SDS011;65202;52.520;10.528;2023-11-21T04:29:22;39.58;;;18.77;;
76380;SDS011;65202;52.520;10.528;2023-11-21T04:31:49;31.52;;;14.07;;
76380;SDS011;65202;52.520;10.528;2023-11-21T04:34:19;26.85;;;12.05;;
76380;SDS011;65202;52.520;10.528;2023-11-21T04:36:46;18.73;;;8.98;;
76380;SDS011;65202;52.520;10.528;2023-11-21T04:39:13;10.88;;;6.00;;
76380;SDS011;65202;52.520;10.528;2023-11-21T04:41:41;6.72;;;4.50;;
76380;SDS011;65202;52.520;10.528;2023-11-21T04:44:08;5.55;;;3.65;;
76380;SDS011;65202;52.520;10.528;2023-11-21T04:46:35;7.03;;;3.33;;
76380;SDS011;65202;52.520;10.528;2023-11-21T04:49:02;5.13;;;3.10;;
76380;SDS011;65202;52.520;10.528;2023-11-21T04:51:30;4.00;;;2.70;;
76380;SDS011;65202;52.520;10.528;2023-11-21T04:53:59;4.18;;;3.00;;
76380;SDS011;65202;52.520;10.528;2023-11-21T04:56:26;3.70;;;2.90;;
76380;SDS011;65202;52.520;10.528;2023-11-21T04:58:53;8.77;;;3.95;;
76380;SDS011;65202;52.520;10.528;2023-11-21T05:01:21;6.00;;;3.83;;
76380;SDS011;65202;52.520;10.528;2023-11-21T05:03:48;5.88;;;3.80;;
76380;SDS011;65202;52.520;10.528;2023-11-21T05:06:16;6.70;;;3.60;;
76380;SDS011;65202;52.520;10.528;2023-11-21T05:08:43;6.63;;;3.80;;
76380;SDS011;65202;52.520;10.528;2023-11-21T05:11:10;8.20;;;4.70;;
76380;SDS011;65202;52.520;10.528;2023-11-21T05:13:37;7.10;;;4.85;;
76380;SDS011;65202;52.520;10.528;2023-11-21T05:16:06;9.30;;;5.93;;
76380;SDS011;65202;52.520;10.528;2023-11-21T05:18:34;13.25;;;7.40;;
76380;SDS011;65202;52.520;10.528;2023-11-21T05:21:01;17.15;;;8.98;;
76380;SDS011;65202;52.520;10.528;2023-11-21T05:23:29;19.25;;;11.32;;
76380;SDS011;65202;52.520;10.528;2023-11-21T05:25:56;18.83;;;11.43;;
76380;SDS011;65202;52.520;10.528;2023-11-21T05:28:24;25.15;;;14.30;;
76380;SDS011;65202;52.520;10.528;2023-11-21T05:30:51;30.70;;;15.40;;
76380;SDS011;65202;52.520;10.528;2023-11-21T05:33:33;31.00;;;15.80;;
76380;SDS011;65202;52.520;10.528;2023-11-21T05:36:00;34.08;;;17.10;;
76380;SDS011;65202;52.520;10.528;2023-11-21T05:38:27;35.15;;;17.05;;
76380;SDS011;65202;52.520;10.528;2023-11-21T05:40:56;33.03;;;18.33;;
76380;SDS011;65202;52.520;10.528;2023-11-21T05:43:25;33.92;;;18.20;;
76380;SDS011;65202;52.520;10.528;2023-11-21T05:45:52;37.88;;;18.17;;
76380;SDS011;65202;52.520;10.528;2023-11-21T05:48:20;38.38;;;18.27;;
76380;SDS011;65202;52.520;10.528;2023-11-21T05:50:48;35.03;;;18.00;;
76380;SDS011;65202;52.520;10.528;2023-11-21T05:53:16;40.03;;;18.58;;
76380;SDS011;65202;52.520;10.528;2023-11-21T05:55:43;41.15;;;18.60;;
76380;SDS011;65202;52.520;10.528;2023-11-21T05:58:11;33.67;;;18.00;;
76380;SDS011;65202;52.520;10.528;2023-11-21T06:00:39;34.80;;;17.65;;
76380;SDS011;65202;52.520;10.528;2023-11-21T06:03:06;33.42;;;17.25;;
76380;SDS011;65202;52.520;10.528;2023-11-21T06:05:34;32.67;;;16.25;;
76380;SDS011;65202;52.520;10.528;2023-11-21T06:08:02;29.00;;;16.42;;
76380;SDS011;65202;52.520;10.528;2023-11-21T06:10:29;33.83;;;17.90;;
76380;SDS011;65202;52.520;10.528;2023-11-21T06:12:57;32.08;;;16.80;;
76380;SDS011;65202;52.520;10.528;2023-11-21T06:15:29;32.35;;;17.67;;
76380;SDS011;65202;52.520;10.528;2023-11-21T06:17:56;33.22;;;17.65;;
76380;SDS011;65202;52.520;10.528;2023-11-21T06:20:24;30.50;;;16.40;;
76380;SDS011;65202;52.520;10.528;2023-11-21T06:22:51;34.78;;;17.17;;
76380;SDS011;65202;52.520;10.528;2023-11-21T06:25:19;33.00;;;17.30;;
76380;SDS011;65202;52.520;10.528;2023-11-21T06:27:47;33.70;;;18.13;;
76380;SDS011;65202;52.520;10.528;2023-11-21T06:30:18;32.92;;;17.20;;
76380;SDS011;65202;52.520;10.528;2023-11-21T06:32:47;32.63;;;17.52;;
76380;SDS011;65202;52.520;10.528;2023-11-21T06:35:15;32.30;;;17.45;;
76380;SDS011;65202;52.520;10.528;2023-11-21T06:37:44;37.63;;;19.02;;
76380;SDS011;65202;52.520;10.528;2023-11-21T06:40:17;31.25;;;16.98;;
76380;SDS011;65202;52.520;10.528;2023-11-21T06:42:46;34.28;;;17.90;;
76380;SDS011;65202;52.520;10.528;2023-11-21T06:45:15;32.97;;;17.63;;
76380;SDS011;65202;52.520;10.528;2023-11-21T06:47:43;32.67;;;16.55;;
76380;SDS011;65202;52.520;10.528;2023-11-21T06:50:11;28.58;;;17.00;;
76380;SDS011;65202;52.520;10.528;2023-11-21T06:52:39;33.00;;;17.27;;
76380;SDS011;65202;52.520;10.528;2023-11-21T06:55:06;28.88;;;16.50;;
76380;SDS011;65202;52.520;10.528;2023-11-21T06:57:37;29.23;;;16.10;;
76380;SDS011;65202;52.520;10.528;2023-11-21T07:00:05;28.10;;;16.40;;
76380;SDS011;65202;52.520;10.528;2023-11-21T07:02:36;28.98;;;15.73;;
76380;SDS011;65202;52.520;10.528;2023-11-21T07:05:03;30.80;;;16.17;;
76380;SDS011;65202;52.520;10.528;2023-11-21T07:07:31;27.42;;;15.60;;
76380;SDS011;65202;52.520;10.528;2023-11-21T07:09:59;28.50;;;16.05;;
76380;SDS011;65202;52.520;10.528;2023-11-21T07:12:33;27.73;;;15.77;;
76380;SDS011;65202;52.520;10.528;2023-11-21T07:15:01;27.17;;;15.48;;
76380;SDS011;65202;52.520;10.528;2023-11-21T07:17:29;23.75;;;15.45;;
76380;SDS011;65202;52.520;10.528;2023-11-21T07:19:56;27.55;;;15.52;;
76380;SDS011;65202;52.520;10.528;2023-11-21T07:22:24;23.17;;;14.63;;
76380;SDS011;65202;52.520;10.528;2023-11-21T07:24:51;25.40;;;14.70;;
76380;SDS011;65202;52.520;10.528;2023-11-21T07:27:19;21.30;;;13.90;;
76380;SDS011;65202;52.520;10.528;2023-11-21T07:29:46;20.92;;;13.15;;
76380;SDS011;65202;52.520;10.528;2023-11-21T07:32:15;18.17;;;11.82;;
76380;SDS011;65202;52.520;10.528;2023-11-21T07:34:42;24.73;;;13.20;;
76380;SDS011;65202;52.520;10.528;2023-11-21T07:37:10;22.42;;;13.00;;
76380;SDS011;65202;52.520;10.528;2023-11-21T07:39:37;21.60;;;12.43;;
76380;SDS011;65202;52.520;10.528;2023-11-21T07:42:08;22.02;;;12.50;;
76380;SDS011;65202;52.520;10.528;2023-11-21T07:44:36;21.65;;;12.80;;
76380;SDS011;65202;52.520;10.528;2023-11-21T07:47:03;18.38;;;11.32;;
76380;SDS011;65202;52.520;10.528;2023-11-21T07:49:31;17.67;;;11.88;;
76380;SDS011;65202;52.520;10.528;2023-11-21T07:51:59;21.20;;;13.27;;
76380;SDS011;65202;52.520;10.528;2023-11-21T07:54:26;20.77;;;12.15;;
76380;SDS011;65202;52.520;10.528;2023-11-21T07:56:53;19.75;;;12.13;;
76380;SDS011;65202;52.520;10.528;2023-11-21T07:59:20;20.92;;;11.90;;
76380;SDS011;65202;52.520;10.528;2023-11-21T08:01:48;18.30;;;11.25;;
76380;SDS011;65202;52.520;10.528;2023-11-21T08:04:15;18.92;;;11.85;;
76380;SDS011;65202;52.520;10.528;2023-11-21T08:06:42;17.05;;;11.52;;
76380;SDS011;65202;52.520;10.528;2023-11-21T08:09:09;22.63;;;11.85;;
76380;SDS011;65202;52.520;10.528;2023-11-21T08:11:37;18.42;;;11.00;;
76380;SDS011;65202;52.520;10.528;2023-11-21T08:14:05;18.58;;;11.85;;
76380;SDS011;65202;52.520;10.528;2023-11-21T08:16:33;20.73;;;11.57;;
76380;SDS011;65202;52.520;10.528;2023-11-21T08:19:00;21.60;;;12.52;;
76380;SDS011;65202;52.520;10.528;2023-11-21T08:21:27;21.27;;;12.82;;
76380;SDS011;65202;52.520;10.528;2023-11-21T08:23:55;22.95;;;12.02;;
76380;SDS011;65202;52.520;10.528;2023-11-21T08:26:23;21.60;;;11.88;;
76380;SDS011;65202;52.520;10.528;2023-11-21T08:28:50;20.40;;;11.38;;
76380;SDS011;65202;52.520;10.528;2023-11-21T08:31:25;19.00;;;11.18;;
76380;SDS011;65202;52.520;10.528;2023-11-21T08:33:53;23.00;;;11.23;;
76380;SDS011;65202;52.520;10.528;2023-11-21T08:36:22;19.27;;;11.60;;
76380;SDS011;65202;52.520;10.528;2023-11-21T08:38:51;24.90;;;12.25;;
76380;SDS011;65202;52.520;10.528;2023-11-21T08:41:21;19.67;;;11.15;;
76380;SDS011;65202;52.520;10.528;2023-11-21T08:43:49;18.42;;;10.55;;
76380;SDS011;65202;52.520;10.528;2023-11-21T08:46:18;17.02;;;10.55;;
76380;SDS011;65202;52.520;10.528;2023-11-21T08:48:46;18.10;;;10.35;;
76380;SDS011;65202;52.520;10.528;2023-11-21T08:51:14;18.15;;;10.63;;
76380;SDS011;65202;52.520;10.528;2023-11-21T08:53:41;14.57;;;10.07;;
76380;SDS011;65202;52.520;10.528;2023-11-21T08:56:14;15.55;;;10.75;;
76380;SDS011;65202;52.520;10.528;2023-11-21T08:58:42;14.93;;;10.95;;
76380;SDS011;65202;52.520;10.528;2023-11-21T09:01:09;17.25;;;10.52;;
76380;SDS011;65202;52.520;10.528;2023-11-21T09:03:36;16.05;;;10.30;;
76380;SDS011;65202;52.520;10.528;2023-11-21T09:06:04;16.42;;;10.10;;
76380;SDS011;65202;52.520;10.528;2023-11-21T09:08:32;20.25;;;10.70;;
76380;SDS011;65202;52.520;10.528;2023-11-21T09:10:59;17.17;;;10.73;;
76380;SDS011;65202;52.520;10.528;2023-11-21T09:13:26;18.80;;;10.40;;
76380;SDS011;65202;52.520;10.528;2023-11-21T09:15:54;16.50;;;9.82;;
76380;SDS011;65202;52.520;10.528;2023-11-21T09:18:21;15.50;;;9.60;;
76380;SDS011;65202;52.520;10.528;2023-11-21T09:20:49;14.70;;;10.23;;
76380;SDS011;65202;52.520;10.528;2023-11-21T09:23:16;14.27;;;9.55;;
76380;SDS011;65202;52.520;10.528;2023-11-21T09:25:43;14.80;;;10.30;;
76380;SDS011;65202;52.520;10.528;2023-11-21T09:28:13;12.63;;;9.63;;
76380;SDS011;65202;52.520;10.528;2023-11-21T09:30:40;16.30;;;9.50;;
76380;SDS011;65202;52.520;10.528;2023-11-21T09:33:08;13.93;;;9.75;;
76380;SDS011;65202;52.520;10.528;2023-11-21T09:35:37;14.77;;;9.48;;
76380;SDS011;65202;52.520;10.528;2023-11-21T09:38:05;13.02;;;9.25;;
76380;SDS011;65202;52.520;10.528;2023-11-21T09:40:37;15.90;;;10.07;;
76380;SDS011;65202;52.520;10.528;2023-11-21T09:43:08;18.00;;;9.68;;
76380;SDS011;65202;52.520;10.528;2023-11-21T09:45:46;14.73;;;10.05;;
76380;SDS011;65202;52.520;10.528;2023-11-21T09:48:15;13.98;;;9.95;;
76380;SDS011;65202;52.520;10.528;2023-11-21T09:50:43;15.88;;;10.00;;
76380;SDS011;65202;52.520;10.528;2023-11-21T09:53:19;15.30;;;9.80;;
76380;SDS011;65202;52.520;10.528;2023-11-21T09:55:52;16.55;;;10.27;;
76380;SDS011;65202;52.520;10.528;2023-11-21T09:58:21;15.40;;;9.95;;
76380;SDS011;65202;52.520;10.528;2023-11-21T10:00:52;16.10;;;10.52;;
76380;SDS011;65202;52.520;10.528;2023-11-21T10:03:23;15.02;;;9.98;;
76380;SDS011;65202;52.520;10.528;2023-11-21T10:05:51;16.50;;;9.95;;
76380;SDS011;65202;52.520;10.528;2023-11-21T10:08:23;14.63;;;10.10;;
76380;SDS011;65202;52.520;10.528;2023-11-21T10:10:59;15.75;;;9.85;;
76380;SDS011;65202;52.520;10.528;2023-11-21T10:13:27;18.50;;;9.48;;
76380;SDS011;65202;52.520;10.528;2023-11-21T10:15:58;14.93;;;8.93;;
76380;SDS011;65202;52.520;10.528;2023-11-21T10:18:26;13.73;;;9.18;;
76380;SDS011;65202;52.520;10.528;2023-11-21T10:20:54;13.82;;;8.80;;
76380;SDS011;65202;52.520;10.528;2023-11-21T10:23:23;13.43;;;9.07;;
76380;SDS011;65202;52.520;10.528;2023-11-21T10:25:52;14.13;;;8.95;;
76380;SDS011;65202;52.520;10.528;2023-11-21T10:28:20;15.07;;;9.18;;
76380;SDS011;65202;52.520;10.528;2023-11-21T10:30:48;14.57;;;8.98;;
76380;SDS011;65202;52.520;10.528;2023-11-21T10:33:16;13.80;;;8.80;;
76380;SDS011;65202;52.520;10.528;2023-11-21T10:38:14;13.77;;;8.57;;
76380;SDS011;65202;52.520;10.528;2023-11-21T10:40:41;12.45;;;8.32;;
76380;SDS011;65202;52.520;10.528;2023-11-21T10:43:09;12.85;;;8.45;;
76380;SDS011;65202;52.520;10.528;2023-11-21T10:45:37;14.90;;;7.90;;
76380;SDS011;65202;52.520;10.528;2023-11-21T10:48:05;12.63;;;8.30;;
76380;SDS011;65202;52.520;10.528;2023-11-21T10:50:46;11.05;;;7.88;;
76380;SDS011;65202;52.520;10.528;2023-11-21T10:53:15;10.38;;;7.95;;
76380;SDS011;65202;52.520;10.528;2023-11-21T10:55:42;12.90;;;8.23;;
76380;SDS011;65202;52.520;10.528;2023-11-21T10:58:13;11.45;;;7.45;;
76380;SDS011;65202;52.520;10.528;2023-11-21T11:00:41;12.90;;;7.28;;
76380;SDS011;65202;52.520;10.528;2023-11-21T11:03:12;11.60;;;7.45;;
76380;SDS011;65202;52.520;10.528;2023-11-21T11:05:43;9.93;;;7.05;;
76380;SDS011;65202;52.520;10.528;2023-11-21T11:08:20;10.52;;;7.15;;
76380;SDS011;65202;52.520;10.528;2023-11-21T11:10:54;8.98;;;6.68;;
76380;SDS011;65202;52.520;10.528;2023-11-21T11:13:22;10.02;;;7.32;;
76380;SDS011;65202;52.520;10.528;2023-11-21T11:15:50;14.90;;;7.40;;
76380;SDS011;65202;52.520;10.528;2023-11-21T11:18:27;11.63;;;7.15;;
76380;SDS011;65202;52.520;10.528;2023-11-21T11:27:44;12.43;;;6.83;;
76380;SDS011;65202;52.520;10.528;2023-11-21T11:33:26;11.88;;;6.28;;
76380;SDS011;65202;52.520;10.528;2023-11-21T11:36:04;8.80;;;5.70;;
76380;SDS011;65202;52.520;10.528;2023-11-21T11:38:39;10.00;;;5.65;;
76380;SDS011;65202;52.520;10.528;2023-11-21T11:41:13;10.55;;;6.15;;
76380;SDS011;65202;52.520;10.528;2023-11-21T11:43:53;7.50;;;5.40;;
76380;SDS011;65202;52.520;10.528;2023-11-21T11:46:39;9.57;;;5.40;;
76380;SDS011;65202;52.520;10.528;2023-11-21T11:49:08;9.10;;;5.15;;
76380;SDS011;65202;52.520;10.528;2023-11-21T11:51:36;8.07;;;5.45;;
76380;SDS011;65202;52.520;10.528;2023-11-21T11:54:03;7.40;;;5.30;;
76380;SDS011;65202;52.520;10.528;2023-11-21T11:56:33;7.88;;;5.88;;
76380;SDS011;65202;52.520;10.528;2023-11-21T11:59:03;7.00;;;5.30;;
76380;SDS011;65202;52.520;10.528;2023-11-21T12:01:32;11.60;;;5.80;;
76380;SDS011;65202;52.520;10.528;2023-11-21T12:04:22;8.23;;;6.00;;
76380;SDS011;65202;52.520;10.528;2023-11-21T12:06:59;10.32;;;5.60;;
76380;SDS011;65202;52.520;10.528;2023-11-21T12:09:30;8.20;;;5.70;;
76380;SDS011;65202;52.520;10.528;2023-11-21T12:11:58;9.07;;;5.50;;
76380;SDS011;65202;52.520;10.528;2023-11-21T12:14:27;8.98;;;6.10;;
76380;SDS011;65202;52.520;10.528;2023-11-21T12:16:55;7.68;;;5.35;;
76380;SDS011;65202;52.520;10.528;2023-11-21T12:19:23;10.43;;;6.13;;
76380;SDS011;65202;52.520;10.528;2023-11-21T12:21:50;6.95;;;5.65;;
76380;SDS011;65202;52.520;10.528;2023-11-21T12:24:18;10.27;;;5.55;;
76380;SDS011;65202;52.520;10.528;2023-11-21T12:26:46;9.02;;;5.30;;
76380;SDS011;65202;52.520;10.528;2023-11-21T12:29:13;8.15;;;5.63;;
76380;SDS011;65202;52.520;10.528;2023-11-21T12:31:40;7.20;;;5.30;;
76380;SDS011;65202;52.520;10.528;2023-11-21T12:34:08;9.60;;;6.03;;
76380;SDS011;65202;52.520;10.528;2023-11-21T12:36:38;7.32;;;5.53;;
76380;SDS011;65202;52.520;10.528;2023-11-21T12:39:06;11.70;;;6.55;;
76380;SDS011;65202;52.520;10.528;2023-11-21T12:41:36;10.85;;;7.78;;
76380;SDS011;65202;52.520;10.528;2023-11-21T12:44:03;8.38;;;6.22;;
76380;SDS011;65202;52.520;10.528;2023-11-21T12:46:36;13.00;;;6.78;;
76380;SDS011;65202;52.520;10.528;2023-11-21T12:49:07;9.57;;;5.80;;
76380;SDS011;65202;52.520;10.528;2023-11-21T12:51:34;9.20;;;5.97;;
76380;SDS011;65202;52.520;10.528;2023-11-21T12:54:01;8.35;;;5.50;;
76380;SDS011;65202;52.520;10.528;2023-11-21T12:56:29;11.35;;;4.93;;
76380;SDS011;65202;52.520;10.528;2023-11-21T12:58:56;6.30;;;4.40;;
76380;SDS011;65202;52.520;10.528;2023-11-21T13:01:25;8.10;;;4.85;;
76380;SDS011;65202;52.520;10.528;2023-11-21T13:03:55;7.13;;;4.80;;
76380;SDS011;65202;52.520;10.528;2023-11-21T13:06:28;7.88;;;4.95;;
76380;SDS011;65202;52.520;10.528;2023-11-21T13:09:01;8.60;;;4.87;;
76380;SDS011;65202;52.520;10.528;2023-11-21T13:11:34;9.48;;;5.18;;
76380;SDS011;65202;52.520;10.528;2023-11-21T13:14:01;8.27;;;4.63;;
76380;SDS011;65202;52.520;10.528;2023-11-21T13:16:30;7.43;;;4.72;;
76380;SDS011;65202;52.520;10.528;2023-11-21T13:18:58;7.18;;;4.72;;
76380;SDS011;65202;52.520;10.528;2023-11-21T13:21:26;8.68;;;4.95;;
76380;SDS011;65202;52.520;10.528;2023-11-21T13:23:54;6.95;;;4.93;;
76380;SDS011;65202;52.520;10.528;2023-11-21T13:26:22;10.23;;;4.68;;
76380;SDS011;65202;52.520;10.528;2023-11-21T13:28:53;6.22;;;4.28;;
76380;SDS011;65202;52.520;10.528;2023-11-21T13:31:20;7.70;;;4.88;;
76380;SDS011;65202;52.520;10.528;2023-11-21T13:33:49;8.43;;;4.30;;
76380;SDS011;65202;52.520;10.528;2023-11-21T13:36:26;7.38;;;4.88;;
76380;SDS011;65202;52.520;10.528;2023-11-21T13:38:57;6.80;;;4.78;;
76380;SDS011;65202;52.520;10.528;2023-11-21T13:41:25;7.18;;;4.82;;
76380;SDS011;65202;52.520;10.528;2023-11-21T13:43:58;9.80;;;4.55;;
76380;SDS011;65202;52.520;10.528;2023-11-21T13:46:38;8.30;;;4.75;;
76380;SDS011;65202;52.520;10.528;2023-11-21T13:49:06;7.47;;;4.82;;
76380;SDS011;65202;52.520;10.528;2023-11-21T13:51:37;7.15;;;5.22;;
76380;SDS011;65202;52.520;10.528;2023-11-21T13:54:09;9.77;;;5.82;;
76380;SDS011;65202;52.520;10.528;2023-11-21T13:56:38;7.55;;;4.97;;
76380;SDS011;65202;52.520;10.528;2023-11-21T13:59:07;8.45;;;4.70;;
76380;SDS011;65202;52.520;10.528;2023-11-21T14:01:55;8.00;;;4.60;;
76380;SDS011;65202;52.520;10.528;2023-11-21T14:04:38;7.43;;;4.70;;
76380;SDS011;65202;52.520;10.528;2023-11-21T14:07:21;6.20;;;4.22;;
76380;SDS011;65202;52.520;10.528;2023-11-21T14:10:03;11.25;;;4.85;;
76380;SDS011;65202;52.520;10.528;2023-11-21T14:12:33;8.07;;;4.88;;
76380;SDS011;65202;52.520;10.528;2023-11-21T14:15:05;8.38;;;4.72;;
76380;SDS011;65202;52.520;10.528;2023-11-21T14:17:36;8.55;;;5.00;;
76380;SDS011;65202;52.520;10.528;2023-11-21T14:20:06;8.45;;;4.97;;
76380;SDS011;65202;52.520;10.528;2023-11-21T14:22:41;7.68;;;5.10;;
76380;SDS011;65202;52.520;10.528;2023-11-21T14:25:09;8.00;;;4.90;;
76380;SDS011;65202;52.520;10.528;2023-11-21T14:27:38;9.25;;;5.22;;
76380;SDS011;65202;52.520;10.528;2023-11-21T14:30:05;6.88;;;4.50;;
76380;SDS011;65202;52.520;10.528;2023-11-21T14:32:33;11.85;;;5.45;;
76380;SDS011;65202;52.520;10.528;2023-11-21T14:35:01;13.45;;;5.68;;
76380;SDS011;65202;52.520;10.528;2023-11-21T14:37:30;7.75;;;5.38;;
76380;SDS011;65202;52.520;10.528;2023-11-21T14:39:57;7.57;;;5.68;;